Terminal Aerodrome Forecast
Issued by NWS

Home | Current Version | Previous Version | Text Only | Print | Product List | Glossary Off
Versions: 1 2 3 4 5 6 7 8 9 10 11 12 13 14 15 16 17 18 19 20 21 22 23 24 25 26

571
FTUS43 KPAH 230520
TAFOWB
TAF
KOWB 230520Z 2306/2406 15009KT 5SM -SHRA BR SCT030 OVC070
      TEMPO 2306/2310 2SM SHRA BR BKN025
     FM231000 29007KT 4SM -RA BR OVC005
     FM231400 26010KT P6SM -SHRA OVC007
     FM231800 28013G20KT 5SM -SHRA BR SCT007 OVC012
     FM232200 23007KT P6SM BKN100=

USA.gov is the U.S. government's official web portal to all federal, state and local government web resources and services.